sensor_id;sensor_type;location;lat;lon;timestamp;P1;durP1;ratioP1;P2;durP2;ratioP2
11865;SDS011;5992;52.744;6.898;2023-05-09T00:01:28;7.03;;;6.33;;
11865;SDS011;5992;52.744;6.898;2023-05-09T00:04:58;7.17;;;6.53;;
11865;SDS011;5992;52.744;6.898;2023-05-09T00:08:02;7.60;;;6.90;;
11865;SDS011;5992;52.744;6.898;2023-05-09T00:11:33;6.23;;;5.73;;
11865;SDS011;5992;52.744;6.898;2023-05-09T00:14:37;6.27;;;5.77;;
11865;SDS011;5992;52.744;6.898;2023-05-09T00:17:55;6.67;;;6.13;;
11865;SDS011;5992;52.744;6.898;2023-05-09T00:21:10;5.50;;;5.00;;
11865;SDS011;5992;52.744;6.898;2023-05-09T00:24:29;6.75;;;6.15;;
11865;SDS011;5992;52.744;6.898;2023-05-09T00:27:33;6.67;;;6.07;;
11865;SDS011;5992;52.744;6.898;2023-05-09T00:31:04;6.43;;;5.77;;
11865;SDS011;5992;52.744;6.898;2023-05-09T00:34:10;6.23;;;5.63;;
11865;SDS011;5992;52.744;6.898;2023-05-09T00:37:43;5.77;;;5.27;;
11865;SDS011;5992;52.744;6.898;2023-05-09T00:40:47;5.40;;;5.00;;
11865;SDS011;5992;52.744;6.898;2023-05-09T00:44:16;5.60;;;5.10;;
11865;SDS011;5992;52.744;6.898;2023-05-09T00:47:21;5.63;;;5.13;;
11865;SDS011;5992;52.744;6.898;2023-05-09T00:50:54;5.50;;;5.00;;
11865;SDS011;5992;52.744;6.898;2023-05-09T00:54:09;5.73;;;5.20;;
11865;SDS011;5992;52.744;6.898;2023-05-09T00:57:39;6.20;;;5.60;;
11865;SDS011;5992;52.744;6.898;2023-05-09T01:00:43;5.10;;;4.60;;
11865;SDS011;5992;52.744;6.898;2023-05-09T01:04:02;5.43;;;5.03;;
11865;SDS011;5992;52.744;6.898;2023-05-09T01:07:10;5.20;;;4.73;;
11865;SDS011;5992;52.744;6.898;2023-05-09T01:10:41;5.20;;;4.80;;
11865;SDS011;5992;52.744;6.898;2023-05-09T01:13:56;5.30;;;4.80;;
11865;SDS011;5992;52.744;6.898;2023-05-09T01:17:29;5.10;;;4.60;;
11865;SDS011;5992;52.744;6.898;2023-05-09T01:20:45;4.90;;;4.50;;
11865;SDS011;5992;52.744;6.898;2023-05-09T01:24:30;5.10;;;4.70;;
11865;SDS011;5992;52.744;6.898;2023-05-09T01:27:44;4.60;;;4.23;;
11865;SDS011;5992;52.744;6.898;2023-05-09T01:31:15;5.20;;;4.70;;
11865;SDS011;5992;52.744;6.898;2023-05-09T01:34:33;5.70;;;5.15;;
11865;SDS011;5992;52.744;6.898;2023-05-09T01:38:04;4.65;;;4.25;;
11865;SDS011;5992;52.744;6.898;2023-05-09T01:41:18;4.70;;;4.30;;
11865;SDS011;5992;52.744;6.898;2023-05-09T01:44:49;4.90;;;4.50;;
11865;SDS011;5992;52.744;6.898;2023-05-09T01:47:55;4.67;;;4.30;;
11865;SDS011;5992;52.744;6.898;2023-05-09T01:51:26;4.55;;;4.15;;
11865;SDS011;5992;52.744;6.898;2023-05-09T01:54:42;4.67;;;4.27;;
11865;SDS011;5992;52.744;6.898;2023-05-09T01:58:11;4.70;;;4.30;;
11865;SDS011;5992;52.744;6.898;2023-05-09T02:01:30;5.07;;;4.40;;
11865;SDS011;5992;52.744;6.898;2023-05-09T02:05:03;4.57;;;4.17;;
11865;SDS011;5992;52.744;6.898;2023-05-09T02:08:19;4.60;;;4.20;;
11865;SDS011;5992;52.744;6.898;2023-05-09T02:11:49;4.70;;;4.30;;
11865;SDS011;5992;52.744;6.898;2023-05-09T02:14:53;5.63;;;5.13;;
11865;SDS011;5992;52.744;6.898;2023-05-09T02:18:10;4.75;;;4.35;;
11865;SDS011;5992;52.744;6.898;2023-05-09T02:21:27;4.80;;;4.40;;
11865;SDS011;5992;52.744;6.898;2023-05-09T02:25:01;5.50;;;4.95;;
11865;SDS011;5992;52.744;6.898;2023-05-09T02:28:17;4.45;;;4.05;;
11865;SDS011;5992;52.744;6.898;2023-05-09T02:31:48;4.97;;;4.40;;
11865;SDS011;5992;52.744;6.898;2023-05-09T02:35:04;6.30;;;3.80;;
11865;SDS011;5992;52.744;6.898;2023-05-09T02:38:37;4.70;;;4.30;;
11865;SDS011;5992;52.744;6.898;2023-05-09T02:41:53;6.00;;;5.10;;
11865;SDS011;5992;52.744;6.898;2023-05-09T02:45:12;5.60;;;5.10;;
11865;SDS011;5992;52.744;6.898;2023-05-09T02:48:16;4.93;;;4.53;;
11865;SDS011;5992;52.744;6.898;2023-05-09T02:51:44;5.30;;;4.90;;
11865;SDS011;5992;52.744;6.898;2023-05-09T02:54:50;4.95;;;4.55;;
11865;SDS011;5992;52.744;6.898;2023-05-09T02:58:18;4.70;;;4.23;;
11865;SDS011;5992;52.744;6.898;2023-05-09T03:01:34;5.00;;;4.50;;
11865;SDS011;5992;52.744;6.898;2023-05-09T03:05:05;5.05;;;4.65;;
11865;SDS011;5992;52.744;6.898;2023-05-09T03:08:21;4.55;;;4.15;;
11865;SDS011;5992;52.744;6.898;2023-05-09T03:11:41;4.85;;;4.35;;
11865;SDS011;5992;52.744;6.898;2023-05-09T03:15:13;4.65;;;4.25;;
11865;SDS011;5992;52.744;6.898;2023-05-09T03:18:41;5.07;;;4.67;;
11865;SDS011;5992;52.744;6.898;2023-05-09T03:21:57;4.50;;;4.10;;
11865;SDS011;5992;52.744;6.898;2023-05-09T03:25:16;4.35;;;4.00;;
11865;SDS011;5992;52.744;6.898;2023-05-09T03:28:21;6.80;;;6.10;;
11865;SDS011;5992;52.744;6.898;2023-05-09T03:31:55;4.50;;;4.10;;
11865;SDS011;5992;52.744;6.898;2023-05-09T03:35:11;4.43;;;4.03;;
11865;SDS011;5992;52.744;6.898;2023-05-09T03:38:30;4.80;;;4.35;;
11865;SDS011;5992;52.744;6.898;2023-05-09T03:41:46;5.20;;;4.70;;
11865;SDS011;5992;52.744;6.898;2023-05-09T03:45:04;4.75;;;4.35;;
11865;SDS011;5992;52.744;6.898;2023-05-09T03:48:35;5.00;;;4.60;;
11865;SDS011;5992;52.744;6.898;2023-05-09T03:51:51;5.05;;;4.50;;
11865;SDS011;5992;52.744;6.898;2023-05-09T03:55:07;5.53;;;4.80;;
11865;SDS011;5992;52.744;6.898;2023-05-09T03:58:35;4.80;;;4.40;;
11865;SDS011;5992;52.744;6.898;2023-05-09T04:01:52;5.20;;;4.70;;
11865;SDS011;5992;52.744;6.898;2023-05-09T04:05:21;4.80;;;4.40;;
11865;SDS011;5992;52.744;6.898;2023-05-09T04:08:49;4.90;;;4.40;;
11865;SDS011;5992;52.744;6.898;2023-05-09T04:12:05;4.50;;;4.10;;
11865;SDS011;5992;52.744;6.898;2023-05-09T04:15:33;6.53;;;5.90;;
11865;SDS011;5992;52.744;6.898;2023-05-09T04:18:53;7.67;;;6.87;;
11865;SDS011;5992;52.744;6.898;2023-05-09T04:22:21;5.50;;;5.00;;
11865;SDS011;5992;52.744;6.898;2023-05-09T04:25:39;6.80;;;6.20;;
11865;SDS011;5992;52.744;6.898;2023-05-09T04:28:55;5.35;;;4.85;;
11865;SDS011;5992;52.744;6.898;2023-05-09T04:32:11;5.67;;;5.17;;
11865;SDS011;5992;52.744;6.898;2023-05-09T04:35:29;6.40;;;5.83;;
11865;SDS011;5992;52.744;6.898;2023-05-09T04:39:02;7.50;;;6.80;;
11865;SDS011;5992;52.744;6.898;2023-05-09T04:42:18;7.50;;;6.80;;
11865;SDS011;5992;52.744;6.898;2023-05-09T04:45:34;7.95;;;7.20;;
11865;SDS011;5992;52.744;6.898;2023-05-09T04:49:03;9.80;;;8.80;;
11865;SDS011;5992;52.744;6.898;2023-05-09T04:52:24;7.90;;;6.00;;
11865;SDS011;5992;52.744;6.898;2023-05-09T04:55:40;9.05;;;6.95;;
11865;SDS011;5992;52.744;6.898;2023-05-09T04:58:57;8.10;;;7.00;;
11865;SDS011;5992;52.744;6.898;2023-05-09T05:02:16;6.60;;;5.90;;
11865;SDS011;5992;52.744;6.898;2023-05-09T05:05:32;7.77;;;7.03;;
11865;SDS011;5992;52.744;6.898;2023-05-09T05:08:50;7.33;;;6.53;;
11865;SDS011;5992;52.744;6.898;2023-05-09T05:12:23;6.85;;;6.15;;
11865;SDS011;5992;52.744;6.898;2023-05-09T05:15:39;7.73;;;6.93;;
11865;SDS011;5992;52.744;6.898;2023-05-09T05:19:10;10.75;;;8.85;;
11865;SDS011;5992;52.744;6.898;2023-05-09T05:22:26;12.00;;;8.35;;
11865;SDS011;5992;52.744;6.898;2023-05-09T05:25:47;8.17;;;7.33;;
11865;SDS011;5992;52.744;6.898;2023-05-09T05:29:20;9.90;;;8.40;;
11865;SDS011;5992;52.744;6.898;2023-05-09T05:32:39;7.80;;;7.10;;
11865;SDS011;5992;52.744;6.898;2023-05-09T05:35:55;7.33;;;6.63;;
11865;SDS011;5992;52.744;6.898;2023-05-09T05:39:23;9.07;;;7.23;;
11865;SDS011;5992;52.744;6.898;2023-05-09T05:42:41;7.15;;;6.45;;
11865;SDS011;5992;52.744;6.898;2023-05-09T05:46:11;9.10;;;8.20;;
11865;SDS011;5992;52.744;6.898;2023-05-09T05:49:27;7.07;;;6.40;;
11865;SDS011;5992;52.744;6.898;2023-05-09T05:52:46;10.85;;;9.35;;
11865;SDS011;5992;52.744;6.898;2023-05-09T05:56:02;12.10;;;9.57;;
11865;SDS011;5992;52.744;6.898;2023-05-09T05:59:20;11.05;;;7.45;;
11865;SDS011;5992;52.744;6.898;2023-05-09T06:02:47;10.45;;;9.15;;
11865;SDS011;5992;52.744;6.898;2023-05-09T06:06:04;9.17;;;8.00;;
11865;SDS011;5992;52.744;6.898;2023-05-09T06:09:32;10.60;;;9.50;;
11865;SDS011;5992;52.744;6.898;2023-05-09T06:13:03;10.05;;;8.90;;
11865;SDS011;5992;52.744;6.898;2023-05-09T06:16:21;12.30;;;9.60;;
11865;SDS011;5992;52.744;6.898;2023-05-09T06:19:51;9.93;;;8.93;;
11865;SDS011;5992;52.744;6.898;2023-05-09T06:22:58;10.53;;;9.50;;
11865;SDS011;5992;52.744;6.898;2023-05-09T06:26:17;10.85;;;9.65;;
11865;SDS011;5992;52.744;6.898;2023-05-09T06:29:33;10.03;;;8.93;;
11865;SDS011;5992;52.744;6.898;2023-05-09T06:32:53;11.30;;;9.80;;
11865;SDS011;5992;52.744;6.898;2023-05-09T06:36:11;13.30;;;10.20;;
11865;SDS011;5992;52.744;6.898;2023-05-09T06:39:40;11.05;;;9.70;;
11865;SDS011;5992;52.744;6.898;2023-05-09T06:42:48;13.85;;;11.20;;
11865;SDS011;5992;52.744;6.898;2023-05-09T06:46:07;10.80;;;9.70;;
11865;SDS011;5992;52.744;6.898;2023-05-09T06:49:13;10.80;;;9.53;;
11865;SDS011;5992;52.744;6.898;2023-05-09T06:52:46;12.10;;;10.05;;
11865;SDS011;5992;52.744;6.898;2023-05-09T06:55:50;12.05;;;10.20;;
11865;SDS011;5992;52.744;6.898;2023-05-09T06:59:06;13.07;;;11.13;;
11865;SDS011;5992;52.744;6.898;2023-05-09T07:02:22;15.40;;;10.95;;
11865;SDS011;5992;52.744;6.898;2023-05-09T07:05:43;12.20;;;10.70;;
11865;SDS011;5992;52.744;6.898;2023-05-09T07:09:01;12.43;;;11.13;;
11865;SDS011;5992;52.744;6.898;2023-05-09T07:12:20;13.73;;;10.60;;
11865;SDS011;5992;52.744;6.898;2023-05-09T07:15:24;12.93;;;11.30;;
11865;SDS011;5992;52.744;6.898;2023-05-09T07:18:40;14.30;;;10.60;;
11865;SDS011;5992;52.744;6.898;2023-05-09T07:21:46;12.37;;;11.17;;
11865;SDS011;5992;52.744;6.898;2023-05-09T07:25:19;12.60;;;10.70;;
11865;SDS011;5992;52.744;6.898;2023-05-09T07:28:23;12.20;;;10.47;;
11865;SDS011;5992;52.744;6.898;2023-05-09T07:31:40;11.35;;;10.20;;
11865;SDS011;5992;52.744;6.898;2023-05-09T07:34:45;11.13;;;10.03;;
11865;SDS011;5992;52.744;6.898;2023-05-09T07:38:06;13.55;;;11.35;;
11865;SDS011;5992;52.744;6.898;2023-05-09T07:41:22;13.20;;;11.43;;
11865;SDS011;5992;52.744;6.898;2023-05-09T07:44:38;11.60;;;10.27;;
11865;SDS011;5992;52.744;6.898;2023-05-09T07:47:43;13.90;;;11.90;;
11865;SDS011;5992;52.744;6.898;2023-05-09T07:50:59;12.47;;;10.67;;
11865;SDS011;5992;52.744;6.898;2023-05-09T07:54:16;15.10;;;12.10;;
11865;SDS011;5992;52.744;6.898;2023-05-09T07:57:45;14.17;;;12.10;;
11865;SDS011;5992;52.744;6.898;2023-05-09T08:00:49;15.03;;;11.83;;
11865;SDS011;5992;52.744;6.898;2023-05-09T08:04:06;12.43;;;11.13;;
11865;SDS011;5992;52.744;6.898;2023-05-09T08:07:09;15.00;;;13.40;;
11865;SDS011;5992;52.744;6.898;2023-05-09T08:10:30;15.50;;;12.80;;
11865;SDS011;5992;52.744;6.898;2023-05-09T08:13:47;13.55;;;11.50;;
11865;SDS011;5992;52.744;6.898;2023-05-09T08:17:04;13.57;;;11.67;;
11865;SDS011;5992;52.744;6.898;2023-05-09T08:20:08;15.27;;;12.00;;
11865;SDS011;5992;52.744;6.898;2023-05-09T08:23:25;16.03;;;13.90;;
11865;SDS011;5992;52.744;6.898;2023-05-09T08:26:30;14.25;;;12.65;;
11865;SDS011;5992;52.744;6.898;2023-05-09T08:30:04;17.33;;;13.77;;
11865;SDS011;5992;52.744;6.898;2023-05-09T08:33:22;19.63;;;14.37;;
11865;SDS011;5992;52.744;6.898;2023-05-09T08:36:39;15.13;;;12.40;;
11865;SDS011;5992;52.744;6.898;2023-05-09T08:39:43;22.00;;;14.17;;
11865;SDS011;5992;52.744;6.898;2023-05-09T08:43:03;15.27;;;12.63;;
11865;SDS011;5992;52.744;6.898;2023-05-09T08:46:23;16.75;;;13.20;;
11865;SDS011;5992;52.744;6.898;2023-05-09T08:49:53;19.30;;;14.70;;
11865;SDS011;5992;52.744;6.898;2023-05-09T08:53:09;22.20;;;15.23;;
11865;SDS011;5992;52.744;6.898;2023-05-09T08:56:40;20.90;;;15.77;;
11865;SDS011;5992;52.744;6.898;2023-05-09T08:59:58;18.17;;;14.80;;
11865;SDS011;5992;52.744;6.898;2023-05-09T09:03:32;18.73;;;14.90;;
11865;SDS011;5992;52.744;6.898;2023-05-09T09:06:49;19.35;;;13.75;;
11865;SDS011;5992;52.744;6.898;2023-05-09T09:10:18;20.43;;;15.27;;
11865;SDS011;5992;52.744;6.898;2023-05-09T09:13:34;20.83;;;15.60;;
11865;SDS011;5992;52.744;6.898;2023-05-09T09:17:06;20.00;;;15.27;;
11865;SDS011;5992;52.744;6.898;2023-05-09T09:20:25;26.87;;;15.77;;
11865;SDS011;5992;52.744;6.898;2023-05-09T09:23:54;23.23;;;16.67;;
11865;SDS011;5992;52.744;6.898;2023-05-09T09:27:10;22.55;;;15.10;;
11865;SDS011;5992;52.744;6.898;2023-05-09T09:30:27;21.80;;;16.50;;
11865;SDS011;5992;52.744;6.898;2023-05-09T09:33:34;25.10;;;15.40;;
11865;SDS011;5992;52.744;6.898;2023-05-09T09:37:08;25.40;;;16.80;;
11865;SDS011;5992;52.744;6.898;2023-05-09T09:40:12;24.07;;;16.93;;
11865;SDS011;5992;52.744;6.898;2023-05-09T09:43:32;19.13;;;16.93;;
11865;SDS011;5992;52.744;6.898;2023-05-09T09:46:42;20.27;;;15.03;;
11865;SDS011;5992;52.744;6.898;2023-05-09T09:50:12;27.53;;;17.60;;
11865;SDS011;5992;52.744;6.898;2023-05-09T09:53:31;22.20;;;17.00;;
11865;SDS011;5992;52.744;6.898;2023-05-09T09:57:06;26.97;;;18.23;;
11865;SDS011;5992;52.744;6.898;2023-05-09T10:00:10;25.67;;;18.73;;
11865;SDS011;5992;52.744;6.898;2023-05-09T10:03:38;32.20;;;20.87;;
11865;SDS011;5992;52.744;6.898;2023-05-09T10:06:56;27.30;;;19.30;;
11865;SDS011;5992;52.744;6.898;2023-05-09T10:10:29;26.10;;;19.10;;
11865;SDS011;5992;52.744;6.898;2023-05-09T10:13:45;26.80;;;18.40;;
11865;SDS011;5992;52.744;6.898;2023-05-09T10:17:16;29.43;;;18.70;;
11865;SDS011;5992;52.744;6.898;2023-05-09T10:20:33;25.03;;;19.20;;
11865;SDS011;5992;52.744;6.898;2023-05-09T10:24:06;25.37;;;18.33;;
11865;SDS011;5992;52.744;6.898;2023-05-09T10:27:24;35.97;;;21.77;;
11865;SDS011;5992;52.744;6.898;2023-05-09T10:30:55;28.07;;;19.43;;
11865;SDS011;5992;52.744;6.898;2023-05-09T10:34:10;28.90;;;19.85;;
11865;SDS011;5992;52.744;6.898;2023-05-09T10:37:38;31.10;;;20.60;;
11865;SDS011;5992;52.744;6.898;2023-05-09T10:40:56;28.43;;;20.13;;
11865;SDS011;5992;52.744;6.898;2023-05-09T10:44:23;28.37;;;20.80;;
11865;SDS011;5992;52.744;6.898;2023-05-09T10:47:40;32.40;;;22.00;;
11865;SDS011;5992;52.744;6.898;2023-05-09T10:51:12;32.77;;;20.90;;
11865;SDS011;5992;52.744;6.898;2023-05-09T10:54:29;30.63;;;20.33;;
11865;SDS011;5992;52.744;6.898;2023-05-09T10:58:01;39.70;;;23.27;;
11865;SDS011;5992;52.744;6.898;2023-05-09T11:01:26;31.60;;;21.57;;
11865;SDS011;5992;52.744;6.898;2023-05-09T11:05:14;35.90;;;23.23;;
11865;SDS011;5992;52.744;6.898;2023-05-09T11:08:29;38.53;;;24.70;;
11865;SDS011;5992;52.744;6.898;2023-05-09T11:12:06;39.00;;;25.23;;
11865;SDS011;5992;52.744;6.898;2023-05-09T11:15:23;35.90;;;24.23;;
11865;SDS011;5992;52.744;6.898;2023-05-09T11:18:56;40.20;;;25.83;;
11865;SDS011;5992;52.744;6.898;2023-05-09T11:22:00;38.15;;;25.85;;
11865;SDS011;5992;52.744;6.898;2023-05-09T11:25:31;40.90;;;26.10;;
11865;SDS011;5992;52.744;6.898;2023-05-09T11:28:36;40.67;;;27.90;;
11865;SDS011;5992;52.744;6.898;2023-05-09T11:32:09;40.70;;;26.53;;
11865;SDS011;5992;52.744;6.898;2023-05-09T11:35:24;42.97;;;28.07;;
11865;SDS011;5992;52.744;6.898;2023-05-09T11:38:47;41.55;;;27.80;;
11865;SDS011;5992;52.744;6.898;2023-05-09T11:41:51;39.40;;;28.35;;
11865;SDS011;5992;52.744;6.898;2023-05-09T11:45:26;40.80;;;25.50;;
11865;SDS011;5992;52.744;6.898;2023-05-09T11:48:43;39.33;;;28.40;;
11865;SDS011;5992;52.744;6.898;2023-05-09T11:52:17;42.83;;;28.93;;
11865;SDS011;5992;52.744;6.898;2023-05-09T11:55:36;41.63;;;27.40;;
11865;SDS011;5992;52.744;6.898;2023-05-09T11:59:03;43.80;;;29.20;;
11865;SDS011;5992;52.744;6.898;2023-05-09T12:02:19;41.63;;;28.13;;
11865;SDS011;5992;52.744;6.898;2023-05-09T12:05:50;45.07;;;30.23;;
11865;SDS011;5992;52.744;6.898;2023-05-09T12:09:07;43.13;;;29.77;;
11865;SDS011;5992;52.744;6.898;2023-05-09T12:12:35;39.03;;;27.43;;
11865;SDS011;5992;52.744;6.898;2023-05-09T12:15:50;45.30;;;28.13;;
11865;SDS011;5992;52.744;6.898;2023-05-09T12:19:09;45.00;;;29.80;;
11865;SDS011;5992;52.744;6.898;2023-05-09T12:22:15;44.43;;;30.00;;
11865;SDS011;5992;52.744;6.898;2023-05-09T12:25:46;41.97;;;27.70;;
11865;SDS011;5992;52.744;6.898;2023-05-09T12:29:02;41.40;;;29.80;;
11865;SDS011;5992;52.744;6.898;2023-05-09T12:32:30;49.33;;;30.30;;
11865;SDS011;5992;52.744;6.898;2023-05-09T12:35:46;40.40;;;26.90;;
11865;SDS011;5992;52.744;6.898;2023-05-09T12:39:19;40.73;;;29.43;;
11865;SDS011;5992;52.744;6.898;2023-05-09T12:42:41;41.83;;;27.67;;
11865;SDS011;5992;52.744;6.898;2023-05-09T12:46:10;39.30;;;28.70;;
11865;SDS011;5992;52.744;6.898;2023-05-09T12:49:18;44.40;;;30.50;;
11865;SDS011;5992;52.744;6.898;2023-05-09T12:52:50;38.23;;;27.77;;
11865;SDS011;5992;52.744;6.898;2023-05-09T12:56:12;37.33;;;28.07;;
11865;SDS011;5992;52.744;6.898;2023-05-09T12:59:42;36.13;;;27.70;;
11865;SDS011;5992;52.744;6.898;2023-05-09T13:02:56;39.33;;;27.03;;
11865;SDS011;5992;52.744;6.898;2023-05-09T13:06:16;37.53;;;27.73;;
11865;SDS011;5992;52.744;6.898;2023-05-09T13:09:20;34.90;;;25.53;;
11865;SDS011;5992;52.744;6.898;2023-05-09T13:12:52;36.10;;;26.30;;
11865;SDS011;5992;52.744;6.898;2023-05-09T13:16:22;35.20;;;26.23;;
11865;SDS011;5992;52.744;6.898;2023-05-09T13:19:39;36.07;;;25.63;;
11865;SDS011;5992;52.744;6.898;2023-05-09T13:22:45;30.00;;;24.73;;
11865;SDS011;5992;52.744;6.898;2023-05-09T13:26:05;28.13;;;23.17;;
11865;SDS011;5992;52.744;6.898;2023-05-09T13:29:11;29.20;;;24.13;;
11865;SDS011;5992;52.744;6.898;2023-05-09T13:32:43;26.93;;;22.50;;
11865;SDS011;5992;52.744;6.898;2023-05-09T13:35:47;27.57;;;22.60;;
11865;SDS011;5992;52.744;6.898;2023-05-09T13:39:06;27.33;;;22.13;;
11865;SDS011;5992;52.744;6.898;2023-05-09T13:42:10;24.60;;;22.00;;
11865;SDS011;5992;52.744;6.898;2023-05-09T13:45:28;25.07;;;21.57;;
11865;SDS011;5992;52.744;6.898;2023-05-09T13:48:44;25.03;;;22.30;;
11865;SDS011;5992;52.744;6.898;2023-05-09T13:52:03;22.87;;;20.40;;
11865;SDS011;5992;52.744;6.898;2023-05-09T13:55:07;22.43;;;20.03;;
11865;SDS011;5992;52.744;6.898;2023-05-09T13:58:24;24.63;;;19.93;;
11865;SDS011;5992;52.744;6.898;2023-05-09T14:01:29;24.77;;;20.93;;
11865;SDS011;5992;52.744;6.898;2023-05-09T14:04:59;20.80;;;18.70;;
11865;SDS011;5992;52.744;6.898;2023-05-09T14:08:03;26.33;;;23.53;;
11865;SDS011;5992;52.744;6.898;2023-05-09T14:11:22;22.87;;;20.47;;
11865;SDS011;5992;52.744;6.898;2023-05-09T14:14:26;26.27;;;20.13;;
11865;SDS011;5992;52.744;6.898;2023-05-09T14:17:44;22.17;;;18.60;;
11865;SDS011;5992;52.744;6.898;2023-05-09T14:21:03;21.13;;;19.03;;
11865;SDS011;5992;52.744;6.898;2023-05-09T14:24:22;20.83;;;18.30;;
11865;SDS011;5992;52.744;6.898;2023-05-09T14:27:26;21.13;;;18.87;;
11865;SDS011;5992;52.744;6.898;2023-05-09T14:30:43;19.80;;;17.50;;
11865;SDS011;5992;52.744;6.898;2023-05-09T14:33:48;21.13;;;18.93;;
11865;SDS011;5992;52.744;6.898;2023-05-09T14:37:19;18.70;;;16.70;;
11865;SDS011;5992;52.744;6.898;2023-05-09T14:40:23;17.87;;;16.07;;
11865;SDS011;5992;52.744;6.898;2023-05-09T14:43:43;18.93;;;16.03;;
11865;SDS011;5992;52.744;6.898;2023-05-09T14:46:47;16.30;;;14.60;;
11865;SDS011;5992;52.744;6.898;2023-05-09T14:50:09;16.93;;;15.13;;
11865;SDS011;5992;52.744;6.898;2023-05-09T14:53:25;16.80;;;14.60;;
11865;SDS011;5992;52.744;6.898;2023-05-09T14:56:57;15.60;;;14.00;;
11865;SDS011;5992;52.744;6.898;2023-05-09T15:00:01;15.15;;;13.65;;
11865;SDS011;5992;52.744;6.898;2023-05-09T15:03:32;15.73;;;13.47;;
11865;SDS011;5992;52.744;6.898;2023-05-09T15:06:38;14.37;;;12.87;;
11865;SDS011;5992;52.744;6.898;2023-05-09T15:10:08;13.80;;;12.40;;
11865;SDS011;5992;52.744;6.898;2023-05-09T15:13:24;13.90;;;12.07;;
11865;SDS011;5992;52.744;6.898;2023-05-09T15:16:42;13.60;;;12.20;;
11865;SDS011;5992;52.744;6.898;2023-05-09T15:19:46;12.20;;;11.00;;
11865;SDS011;5992;52.744;6.898;2023-05-09T15:23:05;13.57;;;12.17;;
11865;SDS011;5992;52.744;6.898;2023-05-09T15:26:21;13.00;;;11.60;;
11865;SDS011;5992;52.744;6.898;2023-05-09T15:29:38;12.90;;;11.10;;
11865;SDS011;5992;52.744;6.898;2023-05-09T15:32:42;12.57;;;11.17;;
11865;SDS011;5992;52.744;6.898;2023-05-09T15:36:04;11.30;;;10.13;;
11865;SDS011;5992;52.744;6.898;2023-05-09T15:39:31;11.40;;;10.27;;
11865;SDS011;5992;52.744;6.898;2023-05-09T15:43:08;11.10;;;9.90;;
11865;SDS011;5992;52.744;6.898;2023-05-09T15:46:12;12.67;;;10.23;;
11865;SDS011;5992;52.744;6.898;2023-05-09T15:49:31;11.77;;;9.33;;
11865;SDS011;5992;52.744;6.898;2023-05-09T15:52:35;9.80;;;8.83;;
11865;SDS011;5992;52.744;6.898;2023-05-09T15:55:56;10.67;;;9.37;;
11865;SDS011;5992;52.744;6.898;2023-05-09T15:59:11;9.20;;;8.30;;
11865;SDS011;5992;52.744;6.898;2023-05-09T16:02:30;8.47;;;7.67;;
11865;SDS011;5992;52.744;6.898;2023-05-09T16:05:49;9.47;;;8.43;;
11865;SDS011;5992;52.744;6.898;2023-05-09T16:08:53;9.70;;;8.70;;
11865;SDS011;5992;52.744;6.898;2023-05-09T16:12:11;9.03;;;8.13;;
11865;SDS011;5992;52.744;6.898;2023-05-09T16:15:27;8.97;;;8.07;;
11865;SDS011;5992;52.744;6.898;2023-05-09T16:18:46;8.80;;;7.90;;
11865;SDS011;5992;52.744;6.898;2023-05-09T16:21:50;8.17;;;7.37;;
11865;SDS011;5992;52.744;6.898;2023-05-09T16:25:10;7.17;;;6.50;;
11865;SDS011;5992;52.744;6.898;2023-05-09T16:28:16;7.70;;;6.90;;
11865;SDS011;5992;52.744;6.898;2023-05-09T16:31:46;7.55;;;6.85;;
11865;SDS011;5992;52.744;6.898;2023-05-09T16:34:50;6.90;;;6.25;;
11865;SDS011;5992;52.744;6.898;2023-05-09T16:38:09;6.93;;;6.27;;
11865;SDS011;5992;52.744;6.898;2023-05-09T16:41:13;6.10;;;5.53;;
11865;SDS011;5992;52.744;6.898;2023-05-09T16:44:43;6.53;;;5.93;;
11865;SDS011;5992;52.744;6.898;2023-05-09T16:47:59;5.93;;;5.43;;
11865;SDS011;5992;52.744;6.898;2023-05-09T16:51:27;7.13;;;5.27;;
11865;SDS011;5992;52.744;6.898;2023-05-09T16:54:34;5.33;;;4.83;;
11865;SDS011;5992;52.744;6.898;2023-05-09T16:57:53;5.10;;;4.70;;
11865;SDS011;5992;52.744;6.898;2023-05-09T17:00:59;5.27;;;4.77;;
11865;SDS011;5992;52.744;6.898;2023-05-09T17:04:29;4.90;;;4.40;;
11865;SDS011;5992;52.744;6.898;2023-05-09T17:07:35;3.90;;;3.60;;
11865;SDS011;5992;52.744;6.898;2023-05-09T17:10:51;4.40;;;4.10;;
11865;SDS011;5992;52.744;6.898;2023-05-09T17:13:55;4.37;;;3.97;;
11865;SDS011;5992;52.744;6.898;2023-05-09T17:17:16;3.83;;;3.53;;
11865;SDS011;5992;52.744;6.898;2023-05-09T17:20:31;3.83;;;3.53;;
11865;SDS011;5992;52.744;6.898;2023-05-09T17:23:50;3.73;;;3.40;;
11865;SDS011;5992;52.744;6.898;2023-05-09T17:26:55;2.80;;;2.60;;
11865;SDS011;5992;52.744;6.898;2023-05-09T17:30:15;3.90;;;3.60;;
11865;SDS011;5992;52.744;6.898;2023-05-09T17:33:21;3.33;;;2.97;;
11865;SDS011;5992;52.744;6.898;2023-05-09T17:36:51;3.05;;;2.85;;
11865;SDS011;5992;52.744;6.898;2023-05-09T17:39:55;2.97;;;2.40;;
11865;SDS011;5992;52.744;6.898;2023-05-09T17:43:26;2.47;;;2.37;;
11865;SDS011;5992;52.744;6.898;2023-05-09T17:46:42;2.73;;;2.57;;
11865;SDS011;5992;52.744;6.898;2023-05-09T17:50:03;3.10;;;2.90;;
11865;SDS011;5992;52.744;6.898;2023-05-09T17:53:31;2.40;;;2.30;;
11865;SDS011;5992;52.744;6.898;2023-05-09T17:56:51;2.47;;;2.27;;
11865;SDS011;5992;52.744;6.898;2023-05-09T18:00:07;2.70;;;2.50;;
11865;SDS011;5992;52.744;6.898;2023-05-09T18:03:34;2.13;;;2.03;;
11865;SDS011;5992;52.744;6.898;2023-05-09T18:06:40;1.80;;;1.70;;
11865;SDS011;5992;52.744;6.898;2023-05-09T18:10:08;1.90;;;1.80;;
11865;SDS011;5992;52.744;6.898;2023-05-09T18:13:11;1.90;;;1.80;;
11865;SDS011;5992;52.744;6.898;2023-05-09T18:16:33;2.00;;;1.90;;
11865;SDS011;5992;52.744;6.898;2023-05-09T18:19:38;1.60;;;1.50;;
11865;SDS011;5992;52.744;6.898;2023-05-09T18:22:55;1.83;;;1.73;;
11865;SDS011;5992;52.744;6.898;2023-05-09T18:26:10;1.70;;;1.60;;
11865;SDS011;5992;52.744;6.898;2023-05-09T18:29:27;1.37;;;1.37;;
11865;SDS011;5992;52.744;6.898;2023-05-09T18:32:31;1.47;;;1.37;;
11865;SDS011;5992;52.744;6.898;2023-05-09T18:35:48;1.60;;;1.50;;
11865;SDS011;5992;52.744;6.898;2023-05-09T18:38:53;2.00;;;1.80;;
11865;SDS011;5992;52.744;6.898;2023-05-09T18:42:28;1.57;;;1.47;;
11865;SDS011;5992;52.744;6.898;2023-05-09T18:45:32;1.67;;;1.57;;
11865;SDS011;5992;52.744;6.898;2023-05-09T18:49:03;1.50;;;1.40;;
11865;SDS011;5992;52.744;6.898;2023-05-09T18:52:07;1.35;;;1.25;;
11865;SDS011;5992;52.744;6.898;2023-05-09T18:55:37;1.40;;;1.40;;
11865;SDS011;5992;52.744;6.898;2023-05-09T18:58:53;1.60;;;1.50;;
11865;SDS011;5992;52.744;6.898;2023-05-09T19:02:09;1.57;;;1.50;;
11865;SDS011;5992;52.744;6.898;2023-05-09T19:05:13;1.67;;;1.57;;
11865;SDS011;5992;52.744;6.898;2023-05-09T19:08:32;1.50;;;1.23;;
11865;SDS011;5992;52.744;6.898;2023-05-09T19:11:39;1.55;;;1.50;;
11865;SDS011;5992;52.744;6.898;2023-05-09T19:15:12;1.63;;;1.53;;
11865;SDS011;5992;52.744;6.898;2023-05-09T19:18:16;1.50;;;1.40;;
11865;SDS011;5992;52.744;6.898;2023-05-09T19:21:35;1.23;;;1.23;;
11865;SDS011;5992;52.744;6.898;2023-05-09T19:24:39;1.77;;;1.67;;
11865;SDS011;5992;52.744;6.898;2023-05-09T19:28:01;1.57;;;1.47;;
11865;SDS011;5992;52.744;6.898;2023-05-09T19:31:17;1.40;;;1.30;;
11865;SDS011;5992;52.744;6.898;2023-05-09T19:34:36;1.20;;;1.20;;
11865;SDS011;5992;52.744;6.898;2023-05-09T19:37:40;1.00;;;1.00;;
11865;SDS011;5992;52.744;6.898;2023-05-09T19:40:59;1.80;;;1.20;;
11865;SDS011;5992;52.744;6.898;2023-05-09T19:44:04;1.27;;;1.20;;
11865;SDS011;5992;52.744;6.898;2023-05-09T19:47:41;1.50;;;1.40;;
11865;SDS011;5992;52.744;6.898;2023-05-09T19:50:45;1.20;;;1.20;;
11865;SDS011;5992;52.744;6.898;2023-05-09T19:54:16;1.40;;;1.30;;
11865;SDS011;5992;52.744;6.898;2023-05-09T19:57:20;1.20;;;1.20;;